Time;durP1;ratioP1;P1;durP2;ratioP2;P2;SDS_P1;SDS_P2;PMS_P1;PMS_P2;Temp;Humidity;BMP_temperature;BMP_pressure;BME280_temperature;BME280_humidity;BME280_pressure;Samples;Min_cycle;Max_cycle;Signal;HPM_P1;HPM_P2
2022/08/11 00:01:04;;;;;;;;;;;23.90;61.70;;;;;;5053473;28;19912;-52
2022/08/11 00:03:30;;;;;;;;;;;23.90;61.70;;;;;;5053100;28;20442;-51
2022/08/11 00:05:56;;;;;;;;;;;23.80;61.80;;;;;;5035675;28;19920;-52
2022/08/11 00:08:26;;;;;;;;;;;23.70;61.50;;;;;;5032425;28;19909;-50
2022/08/11 00:10:54;;;;;;;;;;;23.60;62.10;;;;;;5034966;28;19917;-49
2022/08/11 00:13:21;;;;;;;;;;;23.50;62.90;;;;;;5052113;28;19959;-48
2022/08/11 00:15:47;;;;;;;;;;;23.50;63.40;;;;;;5051694;28;20019;-47
2022/08/11 00:18:13;;;;;;;;;;;23.40;63.80;;;;;;5051665;28;20373;-49
2022/08/11 00:20:40;;;;;;;;;;;23.30;64.20;;;;;;5052390;28;19909;-50
2022/08/11 00:23:07;;;;;;;;;;;23.30;64.50;;;;;;5050793;28;19921;-49
2022/08/11 00:25:40;;;;;;;;;;;23.20;64.40;;;;;;5052050;28;20277;-48
2022/08/11 00:28:24;;;;;;;;;;;23.00;63.80;;;;;;5051830;28;19921;-48
2022/08/11 00:30:50;;;;;;;;;;;22.90;64.30;;;;;;5052252;28;19913;-52
2022/08/11 00:33:15;;;;;;;;;;;22.80;64.90;;;;;;5051887;28;19928;-53
2022/08/11 00:35:42;;;;;;;;;;;22.80;65.20;;;;;;5052356;28;19913;-49
2022/08/11 00:38:08;;;;;;;;;;;22.70;65.10;;;;;;5052233;28;19916;-51
2022/08/11 00:40:55;;;;;;;;;;;22.70;65.50;;;;;;5052119;28;19909;-53
2022/08/11 00:43:27;;;;;;;;;;;22.80;65.60;;;;;;5052788;28;19909;-51
2022/08/11 00:46:12;;;;;;;;;;;22.80;65.50;;;;;;5051857;28;19921;-50
2022/08/11 00:48:43;;;;;;;;;;;22.80;64.70;;;;;;5052490;28;19909;-49
2022/08/11 00:51:27;;;;;;;;;;;22.70;63.60;;;;;;5052539;28;20011;-49
2022/08/11 00:54:01;;;;;;;;;;;22.60;64.00;;;;;;5052372;28;19917;-53
2022/08/11 00:56:27;;;;;;;;;;;22.50;64.60;;;;;;5051374;28;20327;-50
2022/08/11 00:58:52;;;;;;;;;;;22.40;65.30;;;;;;5052478;28;19995;-51
2022/08/11 01:01:30;;;;;;;;;;;22.30;65.60;;;;;;5051629;28;19975;-50
2022/08/11 01:04:19;;;;;;;;;;;22.20;66.10;;;;;;5049538;28;19913;-54
2022/08/11 01:07:07;;;;;;;;;;;22.20;66.00;;;;;;5033245;28;19913;-50
2022/08/11 01:09:40;;;;;;;;;;;22.10;66.80;;;;;;5035125;28;20139;-48
2022/08/11 01:12:15;;;;;;;;;;;22.20;67.40;;;;;;5046426;28;20015;-50
2022/08/11 01:14:52;;;;;;;;;;;22.20;67.60;;;;;;5055480;28;19909;-53
2022/08/11 01:17:34;;;;;;;;;;;22.20;68.40;;;;;;5055535;28;19949;-47
2022/08/11 01:20:03;;;;;;;;;;;22.20;69.00;;;;;;5056173;28;20261;-54
2022/08/11 01:22:34;;;;;;;;;;;22.20;69.50;;;;;;5055937;28;19913;-52
2022/08/11 01:25:18;;;;;;;;;;;22.10;69.20;;;;;;5055883;28;20043;-49
2022/08/11 01:27:43;;;;;;;;;;;22.10;69.50;;;;;;5055185;28;19920;-49
2022/08/11 01:30:16;;;;;;;;;;;22.00;69.20;;;;;;5055710;28;19908;-51
2022/08/11 01:33:02;;;;;;;;;;;22.00;69.10;;;;;;5036364;28;19971;-49
2022/08/11 01:35:46;;;;;;;;;;;21.90;69.30;;;;;;5036051;28;19917;-51
2022/08/11 01:38:11;;;;;;;;;;;21.80;70.20;;;;;;5055590;28;19909;-50
2022/08/11 01:40:44;;;;;;;;;;;21.80;70.70;;;;;;5054713;28;19931;-52
2022/08/11 01:46:09;;;;;;;;;;;21.80;71.70;;;;;;5039962;28;19916;-49
2022/08/11 01:48:49;;;;;;;;;;;21.80;71.70;;;;;;5054976;28;20372;-54
2022/08/11 01:51:16;;;;;;;;;;;21.80;71.80;;;;;;5055315;28;19921;-51
2022/08/11 01:53:41;;;;;;;;;;;21.70;72.10;;;;;;5055811;28;19917;-49
2022/08/11 01:56:20;;;;;;;;;;;21.60;71.80;;;;;;5054218;28;20364;-48
2022/08/11 01:58:48;;;;;;;;;;;21.60;72.60;;;;;;5055452;28;19909;-52
2022/08/11 02:01:33;;;;;;;;;;;21.60;72.80;;;;;;5054077;28;19913;-51
2022/08/11 02:04:08;;;;;;;;;;;21.60;73.00;;;;;;5052612;28;19944;-50
2022/08/11 02:06:55;;;;;;;;;;;21.70;73.10;;;;;;5035537;28;19980;-48
2022/08/11 02:09:40;;;;;;;;;;;21.70;73.40;;;;;;5034868;28;20004;-50
2022/08/11 02:12:15;;;;;;;;;;;21.60;73.40;;;;;;5046421;28;19927;-51
2022/08/11 02:14:48;;;;;;;;;;;21.60;73.80;;;;;;5054933;28;20396;-48
2022/08/11 02:17:17;;;;;;;;;;;21.60;73.90;;;;;;5053701;28;19919;-51
2022/08/11 02:25:37;;;;;;;;;;;21.40;75.20;;;;;;5054220;28;20369;-52
2022/08/11 02:28:09;;;;;;;;;;;21.30;75.40;;;;;;5053995;28;19912;-54
2022/08/11 02:33:21;;;;;;;;;;;21.20;72.70;;;;;;5054504;28;20372;-52
2022/08/11 02:33:42;;;;;;;;;;;21.10;72.80;;;;;;5054908;28;19909;-53
2022/08/11 02:36:11;;;;;;;;;;;21.00;71.80;;;;;;5053452;28;19913;-49
2022/08/11 02:38:44;;;;;;;;;;;20.90;70.80;;;;;;5054162;28;20360;-50
2022/08/11 02:44:21;;;;;;;;;;;20.60;72.60;;;;;;5053516;28;19916;-50
2022/08/11 02:46:46;;;;;;;;;;;20.50;72.80;;;;;;5053616;28;19917;-51
2022/08/11 02:52:18;;;;;;;;;;;20.20;72.60;;;;;;5053795;28;19917;-49
2022/08/11 02:54:47;;;;;;;;;;;20.10;72.80;;;;;;5053678;28;19916;-50
2022/08/11 02:57:19;;;;;;;;;;;20.00;73.20;;;;;;5053138;28;20441;-48
2022/08/11 02:59:59;;;;;;;;;;;20.00;72.30;;;;;;5054428;28;19917;-50
2022/08/11 03:02:30;;;;;;;;;;;19.80;72.30;;;;;;5053584;28;20053;-50
2022/08/11 03:04:56;;;;;;;;;;;19.80;73.10;;;;;;5054014;28;19958;-48
2022/08/11 03:07:46;;;;;;;;;;;19.70;73.80;;;;;;5052869;28;19912;-54
2022/08/11 03:10:19;;;;;;;;;;;19.70;73.10;;;;;;5053724;28;19913;-53
2022/08/11 03:19:11;;;;;;;;;;;19.60;73.10;;;;;;5053939;28;19912;-50
2022/08/11 03:21:49;;;;;;;;;;;19.60;72.70;;;;;;5053313;28;19909;-48
2022/08/11 03:24:21;;;;;;;;;;;19.60;73.40;;;;;;5053323;28;20319;-49
2022/08/11 03:26:46;;;;;;;;;;;19.50;73.50;;;;;;5052057;28;19912;-48
2022/08/11 03:29:12;;;;;;;;;;;19.50;73.70;;;;;;5052967;28;19928;-47
2022/08/11 03:32:00;;;;;;;;;;;19.50;73.80;;;;;;5052355;28;19951;-48
2022/08/11 03:34:27;;;;;;;;;;;19.50;73.70;;;;;;5052887;28;19913;-52
2022/08/11 03:37:11;;;;;;;;;;;19.60;74.40;;;;;;5052186;28;19912;-50
2022/08/11 03:39:37;;;;;;;;;;;19.60;74.50;;;;;;5052906;28;20457;-50
2022/08/11 03:42:15;;;;;;;;;;;19.60;74.10;;;;;;5052527;28;19909;-51
2022/08/11 03:44:59;;;;;;;;;;;19.60;74.30;;;;;;5053299;28;19935;-50
2022/08/11 03:47:43;;;;;;;;;;;19.60;74.50;;;;;;5052333;28;19920;-51
2022/08/11 03:50:09;;;;;;;;;;;19.70;74.60;;;;;;5052855;28;19912;-49
2022/08/11 03:52:37;;;;;;;;;;;19.80;75.50;;;;;;5052557;28;19923;-48
2022/08/11 03:55:13;;;;;;;;;;;19.80;75.70;;;;;;5052656;28;20399;-50
2022/08/11 03:57:58;;;;;;;;;;;19.80;74.90;;;;;;5051856;28;20009;-48
2022/08/11 04:01:02;;;;;;;;;;;19.70;75.40;;;;;;5052532;28;20304;-50
2022/08/11 04:03:46;;;;;;;;;;;19.80;75.50;;;;;;5030080;28;20506;-51
2022/08/11 04:06:14;;;;;;;;;;;19.90;75.20;;;;;;5012534;28;20004;-49
2022/08/11 04:08:48;;;;;;;;;;;19.90;75.50;;;;;;5023082;28;20567;-53
2022/08/11 04:11:23;;;;;;;;;;;19.90;75.30;;;;;;5040123;28;19920;-49
2022/08/11 04:13:49;;;;;;;;;;;19.90;75.10;;;;;;5051750;28;19916;-47
2022/08/11 04:16:23;;;;;;;;;;;19.90;74.60;;;;;;5050851;28;19921;-51
2022/08/11 04:18:51;;;;;;;;;;;19.90;74.60;;;;;;5051658;28;19909;-48
2022/08/11 04:21:35;;;;;;;;;;;20.00;74.70;;;;;;5051293;28;19909;-53
2022/08/11 04:24:21;;;;;;;;;;;20.10;74.70;;;;;;5051232;28;19916;-51
2022/08/11 04:26:49;;;;;;;;;;;19.90;74.50;;;;;;5051019;28;19952;-50
2022/08/11 04:29:24;;;;;;;;;;;19.80;74.50;;;;;;5051495;28;19921;-52
2022/08/11 04:31:59;;;;;;;;;;;19.70;74.60;;;;;;5051412;28;20018;-48
2022/08/11 04:34:42;;;;;;;;;;;19.70;75.10;;;;;;5051559;28;19959;-49
2022/08/11 04:37:33;;;;;;;;;;;19.80;75.30;;;;;;5051677;28;19983;-51
2022/08/11 04:40:09;;;;;;;;;;;19.90;75.00;;;;;;5052065;28;19913;-53
2022/08/11 04:45:57;;;;;;;;;;;20.10;74.30;;;;;;5051069;28;20357;-48
2022/08/11 05:02:57;;;;;;;;;;;19.70;74.10;;;;;;5051443;28;19921;-51
2022/08/11 05:05:49;;;;;;;;;;;19.70;73.80;;;;;;5046747;28;19932;-51
2022/08/11 05:08:18;;;;;;;;;;;19.70;74.10;;;;;;5049782;28;19995;-47
2022/08/11 05:10:43;;;;;;;;;;;19.70;74.10;;;;;;5051197;28;19920;-50
2022/08/11 05:35:44;;;;;;;;;;;19.60;73.80;;;;;;5050330;28;20408;-51
2022/08/11 05:58:10;;;;;;;;;;;20.10;72.70;;;;;;5054624;28;19916;-52
2022/08/11 06:00:44;;;;;;;;;;;20.20;72.50;;;;;;5054402;28;19971;-51
2022/08/11 06:03:11;;;;;;;;;;;20.30;72.30;;;;;;5055525;28;20270;-51
2022/08/11 06:05:37;;;;;;;;;;;20.40;72.20;;;;;;5040915;28;19936;-51
2022/08/11 06:08:06;;;;;;;;;;;20.50;71.50;;;;;;5035107;28;19956;-50
2022/08/11 06:10:33;;;;;;;;;;;20.60;71.50;;;;;;5040953;28;20363;-50
2022/08/11 06:12:59;;;;;;;;;;;20.70;71.00;;;;;;5054599;28;19921;-53
2022/08/11 06:15:26;;;;;;;;;;;20.80;71.00;;;;;;5053731;28;19975;-52
2022/08/11 06:17:52;;;;;;;;;;;20.90;70.80;;;;;;5053896;28;19916;-50
2022/08/11 06:20:19;;;;;;;;;;;21.10;70.60;;;;;;5053889;28;20380;-51
2022/08/11 06:22:46;;;;;;;;;;;21.10;70.20;;;;;;5054995;28;19916;-48
2022/08/11 06:25:12;;;;;;;;;;;21.00;70.40;;;;;;5053711;28;20342;-48
2022/08/11 06:27:39;;;;;;;;;;;21.10;70.20;;;;;;5053976;28;19967;-48
2022/08/11 06:30:15;;;;;;;;;;;21.20;70.00;;;;;;5053924;28;20098;-48
2022/08/11 06:32:45;;;;;;;;;;;21.30;70.00;;;;;;5061433;28;20003;-51
2022/08/11 06:35:13;;;;;;;;;;;21.30;69.70;;;;;;5058413;28;19952;-51
2022/08/11 06:37:57;;;;;;;;;;;21.40;69.70;;;;;;5044406;28;19916;-51
2022/08/11 06:40:41;;;;;;;;;;;21.40;69.60;;;;;;5037726;28;19913;-52
2022/08/11 06:43:09;;;;;;;;;;;21.40;69.40;;;;;;5046636;28;19917;-54
2022/08/11 06:45:40;;;;;;;;;;;21.50;69.30;;;;;;5051539;28;19920;-53
2022/08/11 06:48:14;;;;;;;;;;;21.50;69.20;;;;;;5052890;28;20376;-50
2022/08/11 06:53:23;;;;;;;;;;;21.60;69.20;;;;;;5050196;28;19921;-48
2022/08/11 07:01:25;;;;;;;;;;;21.70;69.20;;;;;;5052620;28;19913;-50
2022/08/11 07:03:59;;;;;;;;;;;21.80;69.00;;;;;;5052865;28;19936;-54
2022/08/11 07:15:40;;;;;;;;;;;21.90;68.70;;;;;;5050226;28;19966;-55
2022/08/11 07:15:42;;;;;;;;;;;22.10;68.30;;;;;;5052210;28;19948;-48
2022/08/11 07:29:20;;;;;;;;;;;22.60;67.30;;;;;;5052670;28;20403;-54
2022/08/11 07:31:49;;;;;;;;;;;22.70;67.30;;;;;;5052895;28;19928;-53
2022/08/11 07:34:20;;;;;;;;;;;22.70;67.20;;;;;;5053276;28;19920;-49
2022/08/11 07:36:49;;;;;;;;;;;22.70;67.10;;;;;;5032630;28;20012;-52
2022/08/11 07:39:19;;;;;;;;;;;22.80;67.40;;;;;;5032929;28;20421;-49
2022/08/11 07:41:46;;;;;;;;;;;22.90;66.70;;;;;;5052266;28;19917;-53
2022/08/11 07:44:13;;;;;;;;;;;22.90;66.90;;;;;;5052796;28;19921;-50
2022/08/11 07:55:15;;;;;;;;;;;23.50;65.80;;;;;;5061812;28;19958;-49
2022/08/11 08:19:43;;;;;;;;;;;24.30;63.40;;;;;;5060388;28;19921;-50
2022/08/11 08:22:10;;;;;;;;;;;24.40;63.30;;;;;;5049146;28;19920;-50
2022/08/11 08:24:36;;;;;;;;;;;24.50;63.30;;;;;;5049406;28;19971;-51
2022/08/11 08:27:02;;;;;;;;;;;24.60;63.20;;;;;;5051665;28;19917;-52
2022/08/11 08:32:17;;;;;;;;;;;24.80;62.70;;;;;;5052079;28;20539;-51
2022/08/11 08:34:43;;;;;;;;;;;24.80;62.20;;;;;;5052127;28;19920;-51
2022/08/11 08:37:09;;;;;;;;;;;25.00;61.90;;;;;;5051019;28;19912;-52
2022/08/11 08:39:36;;;;;;;;;;;24.90;61.90;;;;;;5051234;28;20003;-52
2022/08/11 08:42:05;;;;;;;;;;;25.00;61.80;;;;;;5051843;28;19992;-53
2022/08/11 08:44:33;;;;;;;;;;;25.10;61.10;;;;;;5051896;28;19959;-49
2022/08/11 08:46:59;;;;;;;;;;;25.10;61.80;;;;;;5051346;28;20004;-50
2022/08/11 08:49:29;;;;;;;;;;;25.20;61.60;;;;;;5051861;28;19916;-49
2022/08/11 08:51:56;;;;;;;;;;;25.20;61.50;;;;;;5048740;28;20376;-49
2022/08/11 08:54:27;;;;;;;;;;;25.40;61.20;;;;;;5050837;28;19924;-51
2022/08/11 08:56:54;;;;;;;;;;;25.40;60.90;;;;;;5050981;28;19945;-49
2022/08/11 08:59:21;;;;;;;;;;;25.40;61.00;;;;;;5051246;28;19959;-49
2022/08/11 09:01:54;;;;;;;;;;;25.50;60.70;;;;;;5051167;28;19908;-50
2022/08/11 09:04:20;;;;;;;;;;;25.60;60.60;;;;;;5050730;28;20277;-54
2022/08/11 09:06:46;;;;;;;;;;;25.60;60.80;;;;;;5034171;28;19924;-51
2022/08/11 09:09:13;;;;;;;;;;;25.70;60.80;;;;;;5030332;28;20324;-52
2022/08/11 09:11:49;;;;;;;;;;;25.80;60.50;;;;;;5031164;28;19986;-48
2022/08/11 09:14:21;;;;;;;;;;;25.80;59.90;;;;;;5032251;28;19917;-52
2022/08/11 09:16:47;;;;;;;;;;;25.90;60.40;;;;;;5030978;28;19913;-49
2022/08/11 09:19:16;;;;;;;;;;;25.80;60.20;;;;;;5035888;28;19966;-49
2022/08/11 09:26:58;;;;;;;;;;;26.00;59.40;;;;;;5051771;28;19916;-51
2022/08/11 09:27:23;;;;;;;;;;;26.20;59.30;;;;;;5052269;28;19913;-52
2022/08/11 09:29:49;;;;;;;;;;;26.30;58.50;;;;;;5054207;28;19913;-49
2022/08/11 09:32:18;;;;;;;;;;;26.40;58.10;;;;;;5055013;28;19917;-48
2022/08/11 09:34:44;;;;;;;;;;;26.50;57.90;;;;;;5055207;28;19913;-49
2022/08/11 09:45:25;;;;;;;;;;;26.70;57.10;;;;;;5054676;28;19912;-50
2022/08/11 09:47:51;;;;;;;;;;;26.70;57.10;;;;;;5054866;28;19912;-54
2022/08/11 09:50:17;;;;;;;;;;;26.70;56.60;;;;;;5055890;28;19908;-51
2022/08/11 09:52:44;;;;;;;;;;;26.80;56.40;;;;;;5047454;28;19944;-52
2022/08/11 09:55:12;;;;;;;;;;;27.00;56.00;;;;;;5034933;28;19913;-52
2022/08/11 10:00:30;;;;;;;;;;;27.30;55.30;;;;;;5035499;28;20372;-54
2022/08/11 10:02:56;;;;;;;;;;;27.30;55.20;;;;;;5037067;28;20308;-52
2022/08/11 10:08:07;;;;;;;;;;;27.50;54.90;;;;;;5034298;28;19913;-51
2022/08/11 10:10:34;;;;;;;;;;;27.50;54.60;;;;;;5034730;28;20000;-50
2022/08/11 10:13:05;;;;;;;;;;;27.60;54.50;;;;;;5034787;28;19917;-50
2022/08/11 10:15:34;;;;;;;;;;;27.60;54.70;;;;;;5034451;28;19913;-50
2022/08/11 10:20:50;;;;;;;;;;;27.70;54.40;;;;;;5054534;28;19917;-51
2022/08/11 10:28:45;;;;;;;;;;;27.60;54.10;;;;;;5034378;28;19914;-49
2022/08/11 10:34:02;;;;;;;;;;;27.90;54.20;;;;;;5043025;28;19913;-53
2022/08/11 10:36:29;;;;;;;;;;;28.00;53.90;;;;;;5053242;28;19913;-51
2022/08/11 10:38:56;;;;;;;;;;;28.00;54.00;;;;;;5053066;28;19917;-52
2022/08/11 10:44:07;;;;;;;;;;;28.20;53.90;;;;;;5054336;28;19916;-50
2022/08/11 10:49:17;;;;;;;;;;;28.40;53.20;;;;;;5054028;28;20360;-53
2022/08/11 10:59:57;;;;;;;;;;;28.50;52.80;;;;;;5052453;28;20366;-50
2022/08/11 11:02:26;;;;;;;;;;;28.30;53.10;;;;;;5053742;28;19915;-54
2022/08/11 11:04:51;;;;;;;;;;;28.30;53.20;;;;;;5054121;28;20380;-52
2022/08/11 11:07:21;;;;;;;;;;;28.40;53.30;;;;;;5052555;28;19920;-52
2022/08/11 11:09:49;;;;;;;;;;;28.60;53.50;;;;;;5054492;28;19909;-51
2022/08/11 11:18:00;;;;;;;;;;;28.40;52.50;;;;;;5053267;28;19917;-51
2022/08/11 11:20:29;;;;;;;;;;;28.30;52.70;;;;;;5053586;28;20013;-51
2022/08/11 11:23:00;;;;;;;;;;;28.40;53.00;;;;;;5053647;28;19912;-51
2022/08/11 11:25:31;;;;;;;;;;;28.40;53.00;;;;;;5053865;28;19924;-51
2022/08/11 11:28:15;;;;;;;;;;;28.40;53.20;;;;;;5051029;28;19913;-51
2022/08/11 11:31:01;;;;;;;;;;;28.20;52.90;;;;;;5052470;28;20361;-48
2022/08/11 11:33:46;;;;;;;;;;;28.20;53.10;;;;;;5050735;28;20383;-49
2022/08/11 11:36:18;;;;;;;;;;;28.30;52.40;;;;;;5052516;28;20372;-50
2022/08/11 11:38:44;;;;;;;;;;;28.30;52.20;;;;;;5052533;28;19967;-53
2022/08/11 11:41:25;;;;;;;;;;;28.30;52.40;;;;;;5052687;28;19917;-49
2022/08/11 11:43:56;;;;;;;;;;;28.20;52.50;;;;;;5050184;28;19920;-54
2022/08/11 11:46:25;;;;;;;;;;;28.30;52.20;;;;;;5051656;28;19917;-49
2022/08/11 11:48:51;;;;;;;;;;;28.40;53.00;;;;;;5051448;28;19913;-51
2022/08/11 11:51:17;;;;;;;;;;;28.60;51.90;;;;;;5051353;28;20034;-54
2022/08/11 11:53:44;;;;;;;;;;;28.70;51.70;;;;;;5044155;28;20399;-52
2022/08/11 11:56:10;;;;;;;;;;;28.40;51.80;;;;;;5043865;28;20376;-53
2022/08/11 12:01:23;;;;;;;;;;;28.20;51.40;;;;;;5052909;28;19909;-53
2022/08/11 12:03:50;;;;;;;;;;;28.30;51.80;;;;;;5053029;28;19908;-54
2022/08/11 12:06:17;;;;;;;;;;;28.60;52.10;;;;;;5052285;28;19913;-54
2022/08/11 12:08:43;;;;;;;;;;;28.80;52.10;;;;;;5052181;28;20467;-51
2022/08/11 12:13:56;;;;;;;;;;;29.00;51.80;;;;;;5052749;28;19908;-53
2022/08/11 12:16:22;;;;;;;;;;;29.20;51.70;;;;;;5051646;28;19980;-53
2022/08/11 12:18:49;;;;;;;;;;;29.30;51.40;;;;;;5051986;28;19917;-51
2022/08/11 12:21:15;;;;;;;;;;;29.20;51.20;;;;;;5052118;28;19920;-52
2022/08/11 12:29:11;;;;;;;;;;;29.30;51.30;;;;;;5052266;28;19917;-53
2022/08/11 12:31:38;;;;;;;;;;;29.30;51.40;;;;;;5051931;28;19913;-50
2022/08/11 12:34:05;;;;;;;;;;;29.40;51.30;;;;;;5052396;28;20002;-49
2022/08/11 12:36:32;;;;;;;;;;;29.60;51.50;;;;;;5051534;28;19939;-50
2022/08/11 12:38:58;;;;;;;;;;;29.60;50.80;;;;;;5051935;28;19912;-52
2022/08/11 12:46:56;;;;;;;;;;;29.70;50.60;;;;;;5031507;28;19913;-50
2022/08/11 12:52:07;;;;;;;;;;;30.10;50.30;;;;;;5035388;28;19974;-52
2022/08/11 12:54:56;;;;;;;;;;;30.10;49.20;;;;;;5045363;28;19989;-48
2022/08/11 13:05:38;;;;;;;;;;;30.60;49.20;;;;;;5055199;28;19912;-54
2022/08/11 13:08:05;;;;;;;;;;;30.70;48.80;;;;;;5053758;28;20277;-50
2022/08/11 13:13:23;;;;;;;;;;;30.50;49.30;;;;;;5049864;28;20371;-55
2022/08/11 13:15:49;;;;;;;;;;;30.60;48.70;;;;;;5051288;28;19951;-53
2022/08/11 13:18:16;;;;;;;;;;;30.40;48.60;;;;;;5049695;28;19974;-48
2022/08/11 13:20:43;;;;;;;;;;;30.40;48.70;;;;;;5054515;28;19912;-49
2022/08/11 13:23:11;;;;;;;;;;;30.40;48.40;;;;;;5061731;28;20015;-51
2022/08/11 13:25:37;;;;;;;;;;;30.40;48.00;;;;;;5047727;28;19932;-50
2022/08/11 13:28:04;;;;;;;;;;;30.40;48.20;;;;;;5055773;28;20365;-49
2022/08/11 13:33:15;;;;;;;;;;;30.60;47.60;;;;;;5056312;28;19917;-52
2022/08/11 13:35:42;;;;;;;;;;;30.70;47.80;;;;;;5055727;28;19963;-52
2022/08/11 13:38:12;;;;;;;;;;;31.00;48.00;;;;;;5055245;28;19959;-51
2022/08/11 13:40:38;;;;;;;;;;;31.20;47.60;;;;;;5055147;28;19916;-54
2022/08/11 13:43:05;;;;;;;;;;;31.50;47.20;;;;;;5056087;28;19921;-50
2022/08/11 13:45:31;;;;;;;;;;;31.50;47.10;;;;;;5045968;28;19924;-50
2022/08/11 13:47:58;;;;;;;;;;;31.70;47.50;;;;;;5054781;28;19908;-51
2022/08/11 13:53:26;;;;;;;;;;;32.20;47.00;;;;;;5056000;28;19943;-51
2022/08/11 13:55:53;;;;;;;;;;;32.00;46.40;;;;;;5048653;28;19936;-50
2022/08/11 13:58:19;;;;;;;;;;;31.70;46.30;;;;;;5046815;28;20004;-52
2022/08/11 14:00:47;;;;;;;;;;;31.90;46.70;;;;;;5055648;28;19955;-54
2022/08/11 14:03:13;;;;;;;;;;;32.10;46.10;;;;;;5055530;28;20007;-53
2022/08/11 14:05:39;;;;;;;;;;;32.10;45.90;;;;;;5054617;28;19960;-53
2022/08/11 14:08:08;;;;;;;;;;;32.20;46.10;;;;;;5053381;28;19913;-54
2022/08/11 14:10:36;;;;;;;;;;;32.20;45.60;;;;;;5054830;28;20269;-51
2022/08/11 14:15:51;;;;;;;;;;;32.70;46.40;;;;;;5054821;28;19908;-51
2022/08/11 14:18:18;;;;;;;;;;;32.70;45.70;;;;;;5054456;28;19928;-48
2022/08/11 14:23:49;;;;;;;;;;;32.30;45.30;;;;;;5046647;28;19909;-49
2022/08/11 14:26:22;;;;;;;;;;;32.20;46.00;;;;;;5052362;28;19915;-53
2022/08/11 14:28:52;;;;;;;;;;;32.20;45.30;;;;;;5054873;28;19916;-55
2022/08/11 14:31:17;;;;;;;;;;;32.40;45.40;;;;;;5054444;28;19920;-52
2022/08/11 14:33:43;;;;;;;;;;;32.40;45.30;;;;;;5054590;28;19913;-50
2022/08/11 14:36:10;;;;;;;;;;;32.20;45.00;;;;;;5055190;28;20528;-52
2022/08/11 14:38:36;;;;;;;;;;;32.20;45.40;;;;;;5054595;28;19924;-50
2022/08/11 14:49:16;;;;;;;;;;;32.40;44.40;;;;;;5053527;28;19921;-51
2022/08/11 14:51:41;;;;;;;;;;;32.60;44.30;;;;;;5045468;28;19913;-53
2022/08/11 14:56:52;;;;;;;;;;;32.60;44.50;;;;;;5033973;28;19917;-52
2022/08/11 14:59:18;;;;;;;;;;;32.90;44.50;;;;;;5037052;28;19913;-52
2022/08/11 15:04:30;;;;;;;;;;;33.40;44.40;;;;;;5044296;28;19913;-54
2022/08/11 15:06:56;;;;;;;;;;;33.30;43.90;;;;;;5053336;28;19919;-53
2022/08/11 15:09:22;;;;;;;;;;;33.30;44.30;;;;;;5053552;28;20646;-51
2022/08/11 15:17:16;;;;;;;;;;;33.60;43.90;;;;;;5052547;28;19999;-51
2022/08/11 15:25:11;;;;;;;;;;;34.30;43.80;;;;;;5039185;28;19917;-49
2022/08/11 15:38:52;;;;;;;;;;;35.10;43.30;;;;;;5032579;28;19914;-55
2022/08/11 15:46:50;;;;;;;;;;;35.60;43.30;;;;;;5052218;28;19909;-49
2022/08/11 15:49:27;;;;;;;;;;;35.70;43.10;;;;;;5052591;28;19913;-53
2022/08/11 15:51:58;;;;;;;;;;;35.60;42.80;;;;;;5050610;28;19913;-52
2022/08/11 15:54:25;;;;;;;;;;;35.80;42.50;;;;;;5038523;28;19929;-51
2022/08/11 15:56:51;;;;;;;;;;;36.10;42.10;;;;;;5039347;28;20351;-48
2022/08/11 16:04:48;;;;;;;;;;;35.90;41.80;;;;;;5044430;28;20392;-49
2022/08/11 16:07:14;;;;;;;;;;;35.80;42.60;;;;;;5052077;28;19909;-65
2022/08/11 16:09:45;;;;;;;;;;;36.30;42.20;;;;;;5052764;28;19909;-57
2022/08/11 16:12:15;;;;;;;;;;;37.40;41.80;;;;;;5048051;28;20441;-63
2022/08/11 16:17:45;;;;;;;;;;;39.10;40.70;;;;;;5050125;28;19909;-53
2022/08/11 16:20:13;;;;;;;;;;;40.00;39.90;;;;;;5051532;28;19920;-49
2022/08/11 16:22:43;;;;;;;;;;;39.80;39.70;;;;;;5043890;28;19917;-50
2022/08/11 16:25:10;;;;;;;;;;;40.20;40.00;;;;;;5043428;28;19944;-53
2022/08/11 16:27:37;;;;;;;;;;;41.00;39.70;;;;;;5053473;28;20270;-55
2022/08/11 16:30:04;;;;;;;;;;;41.80;39.00;;;;;;5048638;28;19912;-55
2022/08/11 16:32:30;;;;;;;;;;;42.50;38.70;;;;;;5044527;28;20034;-56
2022/08/11 16:40:28;;;;;;;;;;;43.70;37.50;;;;;;5051627;28;19912;-53
2022/08/11 16:48:27;;;;;;;;;;;42.60;37.40;;;;;;5050944;28;19913;-54
2022/08/11 16:50:53;;;;;;;;;;;42.80;37.50;;;;;;5051520;28;19962;-49
2022/08/11 16:53:18;;;;;;;;;;;43.40;37.40;;;;;;5046449;28;19925;-54
2022/08/11 16:55:46;;;;;;;;;;;43.80;37.20;;;;;;5034074;28;19914;-51
2022/08/11 17:00:57;;;;;;;;;;;43.50;36.90;;;;;;5043596;28;20015;-49
2022/08/11 17:14:50;;;;;;;;;;;43.60;36.50;;;;;;5031512;28;19909;-57
2022/08/11 17:17:27;;;;;;;;;;;42.50;37.00;;;;;;5049235;28;19967;-59
2022/08/11 17:19:55;;;;;;;;;;;41.70;38.70;;;;;;5051328;28;19920;-58
2022/08/11 17:25:07;;;;;;;;;;;40.80;39.40;;;;;;5050769;28;19984;-59
2022/08/11 17:27:34;;;;;;;;;;;40.30;39.00;;;;;;5051011;28;19908;-58
2022/08/11 17:30:02;;;;;;;;;;;39.90;38.80;;;;;;5050768;28;19995;-59
2022/08/11 17:35:29;;;;;;;;;;;39.40;38.80;;;;;;5051174;28;19932;-60
2022/08/11 17:38:09;;;;;;;;;;;39.20;39.10;;;;;;5051177;28;20386;-59
2022/08/11 17:40:37;;;;;;;;;;;38.90;39.00;;;;;;5050268;28;20387;-58
2022/08/11 17:48:35;;;;;;;;;;;40.40;38.40;;;;;;5050677;28;19921;-59
2022/08/11 17:51:04;;;;;;;;;;;40.20;38.50;;;;;;5054456;28;19924;-58
2022/08/11 18:01:48;;;;;;;;;;;38.50;39.20;;;;;;5034865;28;19917;-58
2022/08/11 18:04:14;;;;;;;;;;;37.90;39.90;;;;;;5035113;28;19913;-58
2022/08/11 18:06:40;;;;;;;;;;;37.40;40.20;;;;;;5052338;28;19919;-58
